sensor_id;sensor_type;location;lat;lon;timestamp;pressure;altitude;pressure_sealevel;temperature;humidity
63929;BME280;50105;46.522;6.626;2022-07-24T00:01:50;96423.09;;;22.50;59.77
63929;BME280;50105;46.522;6.626;2022-07-24T00:04:16;96415.16;;;22.50;59.86
63929;BME280;50105;46.522;6.626;2022-07-24T00:06:43;96423.09;;;22.50;59.81
63929;BME280;50105;46.522;6.626;2022-07-24T00:09:09;96423.09;;;22.50;59.93
63929;BME280;50105;46.522;6.626;2022-07-24T00:11:36;96417.81;;;22.50;59.65
63929;BME280;50105;46.522;6.626;2022-07-24T00:14:02;96421.28;;;22.50;59.42
63929;BME280;50105;46.522;6.626;2022-07-24T00:16:29;96422.25;;;22.49;59.95
63929;BME280;50105;46.522;6.626;2022-07-24T00:18:55;96405.56;;;22.48;59.83
63929;BME280;50105;46.522;6.626;2022-07-24T00:21:22;96414.47;;;22.47;59.89
63929;BME280;50105;46.522;6.626;2022-07-24T00:23:49;96400.28;;;22.48;59.76
63929;BME280;50105;46.522;6.626;2022-07-24T00:26:15;96400.28;;;22.48;59.89
63929;BME280;50105;46.522;6.626;2022-07-24T00:28:42;96411.81;;;22.47;59.81
63929;BME280;50105;46.522;6.626;2022-07-24T00:31:08;96410.00;;;22.48;59.52
63929;BME280;50105;46.522;6.626;2022-07-24T00:33:35;96414.47;;;22.47;59.86
63929;BME280;50105;46.522;6.626;2022-07-24T00:36:01;96409.19;;;22.47;59.79
63929;BME280;50105;46.522;6.626;2022-07-24T00:38:28;96420.56;;;22.48;59.79
63929;BME280;50105;46.522;6.626;2022-07-24T00:40:54;96407.34;;;22.48;59.75
63929;BME280;50105;46.522;6.626;2022-07-24T00:43:21;96403.91;;;22.47;59.82
63929;BME280;50105;46.522;6.626;2022-07-24T00:45:47;96412.78;;;22.46;59.72
63929;BME280;50105;46.522;6.626;2022-07-24T00:48:14;96398.63;;;22.47;59.44
63929;BME280;50105;46.522;6.626;2022-07-24T00:50:40;96407.50;;;22.46;59.96
63929;BME280;50105;46.522;6.626;2022-07-24T00:53:07;96396.94;;;22.46;59.83
63929;BME280;50105;46.522;6.626;2022-07-24T00:55:34;96401.38;;;22.46;59.92
63929;BME280;50105;46.522;6.626;2022-07-24T00:58:00;96393.47;;;22.46;59.37
63929;BME280;50105;46.522;6.626;2022-07-24T01:00:27;96392.59;;;22.45;59.69
63929;BME280;50105;46.522;6.626;2022-07-24T01:02:54;96396.94;;;22.46;59.52
63929;BME280;50105;46.522;6.626;2022-07-24T01:05:22;96389.97;;;22.45;59.59
63929;BME280;50105;46.522;6.626;2022-07-24T01:07:48;96390.94;;;22.44;59.51
63929;BME280;50105;46.522;6.626;2022-07-24T01:10:15;96384.69;;;22.45;59.52
63929;BME280;50105;46.522;6.626;2022-07-24T01:12:42;96392.75;;;22.44;59.75
63929;BME280;50105;46.522;6.626;2022-07-24T01:15:09;96387.47;;;22.44;59.40
63929;BME280;50105;46.522;6.626;2022-07-24T01:17:38;96396.22;;;22.44;59.38
63929;BME280;50105;46.522;6.626;2022-07-24T01:20:05;96387.47;;;22.44;59.53
63929;BME280;50105;46.522;6.626;2022-07-24T01:22:32;96385.66;;;22.44;59.79
63929;BME280;50105;46.522;6.626;2022-07-24T01:25:01;96390.94;;;22.44;59.86
63929;BME280;50105;46.522;6.626;2022-07-24T01:27:29;96391.91;;;22.43;59.49
63929;BME280;50105;46.522;6.626;2022-07-24T01:29:55;96394.56;;;22.43;59.58
63929;BME280;50105;46.522;6.626;2022-07-24T01:32:27;96392.75;;;22.44;59.54
63929;BME280;50105;46.522;6.626;2022-07-24T01:34:57;96396.22;;;22.44;59.71
63929;BME280;50105;46.522;6.626;2022-07-24T01:37:23;96387.59;;;22.42;59.63
63929;BME280;50105;46.522;6.626;2022-07-24T01:39:50;96384.97;;;22.42;59.60
63929;BME280;50105;46.522;6.626;2022-07-24T01:42:20;96387.59;;;22.42;59.61
63929;BME280;50105;46.522;6.626;2022-07-24T01:44:47;96379.69;;;22.42;59.51
63929;BME280;50105;46.522;6.626;2022-07-24T01:47:13;96379.69;;;22.42;59.45
63929;BME280;50105;46.522;6.626;2022-07-24T01:49:40;96381.59;;;22.40;59.51
63929;BME280;50105;46.522;6.626;2022-07-24T01:52:07;96376.31;;;22.40;59.35
63929;BME280;50105;46.522;6.626;2022-07-24T01:54:33;96377.97;;;22.41;59.51
63929;BME280;50105;46.522;6.626;2022-07-24T01:57:00;96368.41;;;22.40;59.49
63929;BME280;50105;46.522;6.626;2022-07-24T01:59:29;96376.31;;;22.40;59.73
63929;BME280;50105;46.522;6.626;2022-07-24T02:01:56;96377.97;;;22.41;59.55
63929;BME280;50105;46.522;6.626;2022-07-24T02:04:25;96382.44;;;22.41;59.74
63929;BME280;50105;46.522;6.626;2022-07-24T02:06:52;96377.97;;;22.41;59.72
63929;BME280;50105;46.522;6.626;2022-07-24T02:09:22;96376.31;;;22.40;59.67
63929;BME280;50105;46.522;6.626;2022-07-24T02:11:50;96381.59;;;22.40;59.44
63929;BME280;50105;46.522;6.626;2022-07-24T02:14:18;96376.31;;;22.40;59.56
63929;BME280;50105;46.522;6.626;2022-07-24T02:16:48;96369.38;;;22.39;59.63
63929;BME280;50105;46.522;6.626;2022-07-24T02:19:16;96372.97;;;22.38;59.46
63929;BME280;50105;46.522;6.626;2022-07-24T02:21:44;96368.53;;;22.39;59.53
63929;BME280;50105;46.522;6.626;2022-07-24T02:24:12;96367.69;;;22.38;59.54
63929;BME280;50105;46.522;6.626;2022-07-24T02:26:39;96372.84;;;22.40;59.52
63929;BME280;50105;46.522;6.626;2022-07-24T02:29:06;96372.13;;;22.38;59.58
63929;BME280;50105;46.522;6.626;2022-07-24T02:31:33;96376.56;;;22.37;59.67
63929;BME280;50105;46.522;6.626;2022-07-24T02:34:00;96378.25;;;22.38;59.57
63929;BME280;50105;46.522;6.626;2022-07-24T02:36:27;96379.19;;;22.37;59.68
63929;BME280;50105;46.522;6.626;2022-07-24T02:38:53;96376.56;;;22.37;59.92
63929;BME280;50105;46.522;6.626;2022-07-24T02:41:20;96380.06;;;22.38;59.52
63929;BME280;50105;46.522;6.626;2022-07-24T02:43:48;96380.91;;;22.38;59.57
63929;BME280;50105;46.522;6.626;2022-07-24T02:46:17;96376.56;;;22.37;59.63
63929;BME280;50105;46.522;6.626;2022-07-24T02:48:46;96378.25;;;22.38;59.99
63929;BME280;50105;46.522;6.626;2022-07-24T02:51:12;96386.31;;;22.37;60.01
63929;BME280;50105;46.522;6.626;2022-07-24T02:53:43;96392.56;;;22.35;59.68
63929;BME280;50105;46.522;6.626;2022-07-24T02:56:10;96385.44;;;22.36;59.45
63929;BME280;50105;46.522;6.626;2022-07-24T02:58:41;96374.91;;;22.36;59.85
63929;BME280;50105;46.522;6.626;2022-07-24T03:01:10;96376.56;;;22.37;59.78
63929;BME280;50105;46.522;6.626;2022-07-24T03:03:37;96380.16;;;22.36;59.92
63929;BME280;50105;46.522;6.626;2022-07-24T03:06:05;96385.44;;;22.36;59.62
63929;BME280;50105;46.522;6.626;2022-07-24T03:08:34;96379.34;;;22.35;59.68
63929;BME280;50105;46.522;6.626;2022-07-24T03:11:35;96373.22;;;22.35;60.02
63929;BME280;50105;46.522;6.626;2022-07-24T03:14:02;96378.50;;;22.35;59.76
63929;BME280;50105;46.522;6.626;2022-07-24T03:16:28;96389.06;;;22.35;59.70
63929;BME280;50105;46.522;6.626;2022-07-24T03:18:55;96378.50;;;22.35;59.78
63929;BME280;50105;46.522;6.626;2022-07-24T03:21:21;96381.16;;;22.35;59.48
63929;BME280;50105;46.522;6.626;2022-07-24T03:24:07;96383.78;;;22.35;59.92
63929;BME280;50105;46.522;6.626;2022-07-24T03:26:34;96378.50;;;22.35;59.94
63929;BME280;50105;46.522;6.626;2022-07-24T03:29:00;96376.00;;;22.33;59.68
63929;BME280;50105;46.522;6.626;2022-07-24T03:31:27;96376.84;;;22.34;59.70
63929;BME280;50105;46.522;6.626;2022-07-24T03:33:54;96390.03;;;22.34;59.84
63929;BME280;50105;46.522;6.626;2022-07-24T03:36:21;96371.81;;;22.31;59.61
63929;BME280;50105;46.522;6.626;2022-07-24T03:38:47;96375.13;;;22.33;59.82
63929;BME280;50105;46.522;6.626;2022-07-24T03:41:14;96387.66;;;22.31;59.87
63929;BME280;50105;46.522;6.626;2022-07-24T03:43:40;96385.00;;;22.31;59.80
63929;BME280;50105;46.522;6.626;2022-07-24T03:46:06;96393.50;;;22.34;59.71
63929;BME280;50105;46.522;6.626;2022-07-24T03:48:33;96392.06;;;22.30;59.72
63929;BME280;50105;46.522;6.626;2022-07-24T03:50:59;96393.91;;;22.30;59.63
63929;BME280;50105;46.522;6.626;2022-07-24T03:53:26;96398.19;;;22.31;59.83
63929;BME280;50105;46.522;6.626;2022-07-24T03:55:54;96395.56;;;22.31;59.78
63929;BME280;50105;46.522;6.626;2022-07-24T03:58:21;96399.19;;;22.30;59.90
63929;BME280;50105;46.522;6.626;2022-07-24T04:00:47;96399.19;;;22.30;59.54
63929;BME280;50105;46.522;6.626;2022-07-24T04:03:13;96391.25;;;22.30;59.63
63929;BME280;50105;46.522;6.626;2022-07-24T04:05:40;96396.53;;;22.30;59.82
63929;BME280;50105;46.522;6.626;2022-07-24T04:08:16;96396.53;;;22.30;59.84
63929;BME280;50105;46.522;6.626;2022-07-24T04:10:43;96400.16;;;22.29;59.63
63929;BME280;50105;46.522;6.626;2022-07-24T04:13:09;96405.41;;;22.29;59.83
63929;BME280;50105;46.522;6.626;2022-07-24T04:15:36;96411.66;;;22.28;59.99
63929;BME280;50105;46.522;6.626;2022-07-24T04:18:02;96404.56;;;22.28;59.83
63929;BME280;50105;46.522;6.626;2022-07-24T04:20:29;96406.38;;;22.28;59.77
63929;BME280;50105;46.522;6.626;2022-07-24T04:22:55;96409.00;;;22.28;60.11
63929;BME280;50105;46.522;6.626;2022-07-24T04:25:23;96409.84;;;22.28;59.76
63929;BME280;50105;46.522;6.626;2022-07-24T04:27:49;96412.63;;;22.27;59.91
63929;BME280;50105;46.522;6.626;2022-07-24T04:30:16;96408.19;;;22.27;60.07
63929;BME280;50105;46.522;6.626;2022-07-24T04:32:42;96414.28;;;22.28;59.94
63929;BME280;50105;46.522;6.626;2022-07-24T04:35:08;96410.81;;;22.27;59.98
63929;BME280;50105;46.522;6.626;2022-07-24T04:37:36;96407.34;;;22.27;59.92
63929;BME280;50105;46.522;6.626;2022-07-24T04:40:03;96412.63;;;22.27;59.88
63929;BME280;50105;46.522;6.626;2022-07-24T04:42:29;96406.47;;;22.26;59.72
63929;BME280;50105;46.522;6.626;2022-07-24T04:44:55;96414.41;;;22.26;59.92
63929;BME280;50105;46.522;6.626;2022-07-24T04:47:22;96417.91;;;22.27;60.06
63929;BME280;50105;46.522;6.626;2022-07-24T04:49:48;96416.22;;;22.26;59.87
63929;BME280;50105;46.522;6.626;2022-07-24T04:52:15;96422.31;;;22.26;59.86
63929;BME280;50105;46.522;6.626;2022-07-24T04:54:41;96419.84;;;22.25;59.70
63929;BME280;50105;46.522;6.626;2022-07-24T04:57:07;96422.47;;;22.25;59.86
63929;BME280;50105;46.522;6.626;2022-07-24T04:59:34;96426.78;;;22.26;60.20
63929;BME280;50105;46.522;6.626;2022-07-24T05:02:00;96421.50;;;22.26;59.88
63929;BME280;50105;46.522;6.626;2022-07-24T05:04:27;96425.13;;;22.25;59.85
63929;BME280;50105;46.522;6.626;2022-07-24T05:06:54;96425.94;;;22.25;59.81
63929;BME280;50105;46.522;6.626;2022-07-24T05:09:20;96430.41;;;22.25;59.95
63929;BME280;50105;46.522;6.626;2022-07-24T05:11:47;96428.69;;;22.24;60.00
63929;BME280;50105;46.522;6.626;2022-07-24T05:14:13;96430.41;;;22.25;59.86
63929;BME280;50105;46.522;6.626;2022-07-24T05:16:40;96433.97;;;22.24;59.75
63929;BME280;50105;46.522;6.626;2022-07-24T05:19:07;96421.75;;;22.22;59.92
63929;BME280;50105;46.522;6.626;2022-07-24T05:21:34;96424.25;;;22.24;60.02
63929;BME280;50105;46.522;6.626;2022-07-24T05:24:02;96420.78;;;22.24;59.90
63929;BME280;50105;46.522;6.626;2022-07-24T05:26:31;96425.94;;;22.25;60.00
63929;BME280;50105;46.522;6.626;2022-07-24T05:28:58;96421.75;;;22.22;60.06
63929;BME280;50105;46.522;6.626;2022-07-24T05:31:25;96417.31;;;22.23;59.76
63929;BME280;50105;46.522;6.626;2022-07-24T05:33:54;96422.59;;;22.23;59.95
63929;BME280;50105;46.522;6.626;2022-07-24T05:36:21;96418.41;;;22.20;60.10
63929;BME280;50105;46.522;6.626;2022-07-24T05:38:49;96426.06;;;22.24;60.03
63929;BME280;50105;46.522;6.626;2022-07-24T05:41:17;96414.78;;;22.21;59.96
63929;BME280;50105;46.522;6.626;2022-07-24T05:43:45;96416.47;;;22.22;60.12
63929;BME280;50105;46.522;6.626;2022-07-24T05:46:13;96416.47;;;22.22;59.97
63929;BME280;50105;46.522;6.626;2022-07-24T05:48:44;96419.09;;;22.22;59.87
63929;BME280;50105;46.522;6.626;2022-07-24T05:51:10;96421.75;;;22.22;60.24
63929;BME280;50105;46.522;6.626;2022-07-24T05:53:37;96421.75;;;22.22;60.09
63929;BME280;50105;46.522;6.626;2022-07-24T05:56:04;96427.03;;;22.22;60.12
63929;BME280;50105;46.522;6.626;2022-07-24T06:01:05;96427.88;;;22.23;60.08
63929;BME280;50105;46.522;6.626;2022-07-24T06:03:33;96423.41;;;22.24;60.05
63929;BME280;50105;46.522;6.626;2022-07-24T06:06:00;96420.06;;;22.21;59.89
63929;BME280;50105;46.522;6.626;2022-07-24T06:08:32;96427.03;;;22.22;60.15
63929;BME280;50105;46.522;6.626;2022-07-24T06:10:58;96428.69;;;22.24;60.18
63929;BME280;50105;46.522;6.626;2022-07-24T06:13:25;96427.03;;;22.22;60.15
63929;BME280;50105;46.522;6.626;2022-07-24T06:15:52;96432.31;;;22.22;60.28
63929;BME280;50105;46.522;6.626;2022-07-24T06:18:21;96421.75;;;22.22;60.10
63929;BME280;50105;46.522;6.626;2022-07-24T06:20:48;96416.47;;;22.22;60.26
63929;BME280;50105;46.522;6.626;2022-07-24T06:23:23;96416.47;;;22.22;59.98
63929;BME280;50105;46.522;6.626;2022-07-24T06:28:16;96425.34;;;22.21;60.12
63929;BME280;50105;46.522;6.626;2022-07-24T06:30:44;96425.94;;;22.25;60.08
63929;BME280;50105;46.522;6.626;2022-07-24T06:33:13;96416.47;;;22.22;60.44
63929;BME280;50105;46.522;6.626;2022-07-24T06:35:40;96421.75;;;22.22;60.28
63929;BME280;50105;46.522;6.626;2022-07-24T06:40:35;96428.69;;;22.24;60.22
63929;BME280;50105;46.522;6.626;2022-07-24T06:45:29;96418.13;;;22.24;60.26
63929;BME280;50105;46.522;6.626;2022-07-24T06:47:59;96411.19;;;22.22;60.35
63929;BME280;50105;46.522;6.626;2022-07-24T06:50:26;96411.19;;;22.22;60.31
63929;BME280;50105;46.522;6.626;2022-07-24T06:52:53;96418.13;;;22.24;60.43
63929;BME280;50105;46.522;6.626;2022-07-24T06:55:19;96417.31;;;22.23;60.38
63929;BME280;50105;46.522;6.626;2022-07-24T06:57:46;96427.03;;;22.22;60.66
63929;BME280;50105;46.522;6.626;2022-07-24T07:00:13;96412.84;;;22.24;60.39
63929;BME280;50105;46.522;6.626;2022-07-24T07:02:40;96416.47;;;22.22;60.19
63929;BME280;50105;46.522;6.626;2022-07-24T07:05:07;96412.03;;;22.23;60.34
63929;BME280;50105;46.522;6.626;2022-07-24T07:07:34;96412.84;;;22.24;60.49
63929;BME280;50105;46.522;6.626;2022-07-24T07:10:01;96412.03;;;22.23;60.67
63929;BME280;50105;46.522;6.626;2022-07-24T07:12:28;96409.28;;;22.25;60.19
63929;BME280;50105;46.522;6.626;2022-07-24T07:14:54;96404.00;;;22.25;60.60
63929;BME280;50105;46.522;6.626;2022-07-24T07:17:21;96407.56;;;22.24;60.65
63929;BME280;50105;46.522;6.626;2022-07-24T07:19:47;96409.41;;;22.23;60.63
63929;BME280;50105;46.522;6.626;2022-07-24T07:22:14;96407.56;;;22.24;60.64
63929;BME280;50105;46.522;6.626;2022-07-24T07:24:41;96413.72;;;22.24;60.53
63929;BME280;50105;46.522;6.626;2022-07-24T07:27:11;96407.56;;;22.24;60.47
63929;BME280;50105;46.522;6.626;2022-07-24T07:29:38;96413.72;;;22.24;60.71
63929;BME280;50105;46.522;6.626;2022-07-24T07:32:04;96408.44;;;22.24;60.54
63929;BME280;50105;46.522;6.626;2022-07-24T07:34:31;96412.84;;;22.24;60.57
63929;BME280;50105;46.522;6.626;2022-07-24T07:36:57;96407.56;;;22.24;60.70
63929;BME280;50105;46.522;6.626;2022-07-24T07:39:23;96404.25;;;22.21;60.64
63929;BME280;50105;46.522;6.626;2022-07-24T07:41:50;96408.44;;;22.24;60.55
63929;BME280;50105;46.522;6.626;2022-07-24T07:44:16;96404.13;;;22.23;60.70
63929;BME280;50105;46.522;6.626;2022-07-24T07:46:43;96407.56;;;22.24;60.60
63929;BME280;50105;46.522;6.626;2022-07-24T07:49:10;96404.00;;;22.25;60.76
63929;BME280;50105;46.522;6.626;2022-07-24T07:51:36;96404.00;;;22.25;60.95
63929;BME280;50105;46.522;6.626;2022-07-24T07:54:05;96403.16;;;22.24;60.87
63929;BME280;50105;46.522;6.626;2022-07-24T07:56:32;96395.34;;;22.22;60.96
63929;BME280;50105;46.522;6.626;2022-07-24T07:58:58;96391.75;;;22.24;60.94
63929;BME280;50105;46.522;6.626;2022-07-24T08:01:27;96397.03;;;22.24;60.83
63929;BME280;50105;46.522;6.626;2022-07-24T08:03:53;96399.66;;;22.24;60.96
63929;BME280;50105;46.522;6.626;2022-07-24T08:06:20;96398.72;;;22.25;60.79
63929;BME280;50105;46.522;6.626;2022-07-24T08:08:49;96389.09;;;22.24;61.02
63929;BME280;50105;46.522;6.626;2022-07-24T08:11:16;96389.09;;;22.24;61.17
63929;BME280;50105;46.522;6.626;2022-07-24T08:13:43;96389.09;;;22.24;61.07
63929;BME280;50105;46.522;6.626;2022-07-24T08:16:09;96397.03;;;22.24;61.17
63929;BME280;50105;46.522;6.626;2022-07-24T08:18:35;96383.81;;;22.24;61.13
63929;BME280;50105;46.522;6.626;2022-07-24T08:21:02;96384.78;;;22.22;61.14
63929;BME280;50105;46.522;6.626;2022-07-24T08:23:29;96381.19;;;22.24;61.09
63929;BME280;50105;46.522;6.626;2022-07-24T08:25:55;96382.16;;;22.22;61.14
63929;BME280;50105;46.522;6.626;2022-07-24T08:28:21;96391.75;;;22.24;61.45
63929;BME280;50105;46.522;6.626;2022-07-24T08:30:49;96393.44;;;22.25;61.06
63929;BME280;50105;46.522;6.626;2022-07-24T08:33:16;96390.06;;;22.22;61.27
63929;BME280;50105;46.522;6.626;2022-07-24T08:35:42;96391.75;;;22.24;61.41
63929;BME280;50105;46.522;6.626;2022-07-24T08:38:09;96391.75;;;22.24;61.63
63929;BME280;50105;46.522;6.626;2022-07-24T08:40:36;96384.78;;;22.22;61.24
63929;BME280;50105;46.522;6.626;2022-07-24T08:43:03;96389.09;;;22.24;61.33
63929;BME280;50105;46.522;6.626;2022-07-24T08:45:33;96389.94;;;22.24;61.37
63929;BME280;50105;46.522;6.626;2022-07-24T08:48:04;96389.09;;;22.24;61.51
63929;BME280;50105;46.522;6.626;2022-07-24T08:50:32;96385.63;;;22.23;61.44
63929;BME280;50105;46.522;6.626;2022-07-24T08:52:58;96381.19;;;22.24;61.47
63929;BME280;50105;46.522;6.626;2022-07-24T08:55:27;96389.09;;;22.24;61.67
63929;BME280;50105;46.522;6.626;2022-07-24T08:57:58;96381.19;;;22.24;61.51
63929;BME280;50105;46.522;6.626;2022-07-24T09:00:25;96375.09;;;22.23;61.58
63929;BME280;50105;46.522;6.626;2022-07-24T09:02:52;96374.22;;;22.22;61.69
63929;BME280;50105;46.522;6.626;2022-07-24T09:05:19;96375.09;;;22.23;61.47
63929;BME280;50105;46.522;6.626;2022-07-24T09:07:50;96381.19;;;22.24;61.60
63929;BME280;50105;46.522;6.626;2022-07-24T09:10:31;96371.59;;;22.22;61.60
63929;BME280;50105;46.522;6.626;2022-07-24T09:12:59;96378.53;;;22.24;61.59
63929;BME280;50105;46.522;6.626;2022-07-24T09:15:44;96373.25;;;22.24;61.82
63929;BME280;50105;46.522;6.626;2022-07-24T09:18:24;96382.03;;;22.24;61.71
63929;BME280;50105;46.522;6.626;2022-07-24T09:20:51;96377.59;;;22.25;61.59
63929;BME280;50105;46.522;6.626;2022-07-24T09:23:21;96382.88;;;22.25;61.59
63929;BME280;50105;46.522;6.626;2022-07-24T09:25:51;96382.88;;;22.25;62.04
63929;BME280;50105;46.522;6.626;2022-07-24T09:28:18;96377.59;;;22.25;61.75
63929;BME280;50105;46.522;6.626;2022-07-24T09:30:45;96377.59;;;22.25;61.86
63929;BME280;50105;46.522;6.626;2022-07-24T09:33:15;96377.59;;;22.25;61.53
63929;BME280;50105;46.522;6.626;2022-07-24T09:35:46;96375.91;;;22.24;61.66
63929;BME280;50105;46.522;6.626;2022-07-24T09:38:17;96379.28;;;22.26;61.74
63929;BME280;50105;46.522;6.626;2022-07-24T09:40:56;96387.19;;;22.26;61.47
63929;BME280;50105;46.522;6.626;2022-07-24T09:43:27;96379.28;;;22.26;61.83
63929;BME280;50105;46.522;6.626;2022-07-24T09:46:01;96377.44;;;22.26;61.72
63929;BME280;50105;46.522;6.626;2022-07-24T09:48:37;96379.28;;;22.26;61.68
63929;BME280;50105;46.522;6.626;2022-07-24T09:51:09;96368.72;;;22.26;61.80
63929;BME280;50105;46.522;6.626;2022-07-24T09:53:36;96375.66;;;22.27;61.90
63929;BME280;50105;46.522;6.626;2022-07-24T09:56:08;96365.09;;;22.27;61.76
63929;BME280;50105;46.522;6.626;2022-07-24T09:58:39;96362.34;;;22.28;61.63
63929;BME280;50105;46.522;6.626;2022-07-24T10:01:06;96362.47;;;22.27;62.10
63929;BME280;50105;46.522;6.626;2022-07-24T10:03:34;96359.81;;;22.27;61.92
63929;BME280;50105;46.522;6.626;2022-07-24T10:06:02;96359.81;;;22.27;61.68
63929;BME280;50105;46.522;6.626;2022-07-24T10:08:30;96361.50;;;22.28;61.65
63929;BME280;50105;46.522;6.626;2022-07-24T10:10:57;96358.84;;;22.28;61.58
63929;BME280;50105;46.522;6.626;2022-07-24T10:13:24;96356.22;;;22.28;61.95
63929;BME280;50105;46.522;6.626;2022-07-24T10:18:25;96348.28;;;22.28;61.79
63929;BME280;50105;46.522;6.626;2022-07-24T10:21:00;96357.91;;;22.29;61.80
63929;BME280;50105;46.522;6.626;2022-07-24T10:23:41;96352.63;;;22.29;61.84
63929;BME280;50105;46.522;6.626;2022-07-24T10:26:15;96347.34;;;22.29;61.88
63929;BME280;50105;46.522;6.626;2022-07-24T10:28:43;96349.00;;;22.30;61.85
63929;BME280;50105;46.522;6.626;2022-07-24T10:31:10;96343.72;;;22.30;61.83
63929;BME280;50105;46.522;6.626;2022-07-24T10:33:37;96344.56;;;22.30;61.89
63929;BME280;50105;46.522;6.626;2022-07-24T10:36:07;96344.44;;;22.32;61.80
63929;BME280;50105;46.522;6.626;2022-07-24T10:38:39;96340.97;;;22.31;61.92
63929;BME280;50105;46.522;6.626;2022-07-24T10:41:15;96340.13;;;22.31;61.85
63929;BME280;50105;46.522;6.626;2022-07-24T10:46:32;96334.59;;;22.34;61.92
63929;BME280;50105;46.522;6.626;2022-07-24T10:49:37;96325.13;;;22.31;61.79
63929;BME280;50105;46.522;6.626;2022-07-24T10:52:09;96330.25;;;22.33;61.96
63929;BME280;50105;46.522;6.626;2022-07-24T10:54:35;96325.81;;;22.33;61.87
63929;BME280;50105;46.522;6.626;2022-07-24T10:57:02;96324.03;;;22.34;61.78
63929;BME280;50105;46.522;6.626;2022-07-24T10:59:32;96316.13;;;22.34;61.83
63929;BME280;50105;46.522;6.626;2022-07-24T11:02:23;96318.75;;;22.34;62.08
63929;BME280;50105;46.522;6.626;2022-07-24T11:04:45;96320.44;;;22.35;61.76
63929;BME280;50105;46.522;6.626;2022-07-24T11:07:12;96307.22;;;22.35;61.81
63929;BME280;50105;46.522;6.626;2022-07-24T11:12:29;96300.97;;;22.36;62.01
63929;BME280;50105;46.522;6.626;2022-07-24T11:14:59;96299.31;;;22.35;61.88
63929;BME280;50105;46.522;6.626;2022-07-24T11:17:46;96298.34;;;22.36;62.02
63929;BME280;50105;46.522;6.626;2022-07-24T11:20:15;96290.41;;;22.36;62.09
63929;BME280;50105;46.522;6.626;2022-07-24T11:25:15;96289.44;;;22.37;61.84
63929;BME280;50105;46.522;6.626;2022-07-24T11:27:43;96286.78;;;22.37;62.12
63929;BME280;50105;46.522;6.626;2022-07-24T11:30:10;96282.38;;;22.38;62.09
63929;BME280;50105;46.522;6.626;2022-07-24T11:32:39;96279.59;;;22.39;61.78
63929;BME280;50105;46.522;6.626;2022-07-24T11:35:06;96277.09;;;22.38;62.16
63929;BME280;50105;46.522;6.626;2022-07-24T11:37:35;96277.94;;;22.38;61.83
63929;BME280;50105;46.522;6.626;2022-07-24T11:40:03;96279.59;;;22.39;62.13
63929;BME280;50105;46.522;6.626;2022-07-24T11:42:31;96274.31;;;22.39;61.85
63929;BME280;50105;46.522;6.626;2022-07-24T11:44:57;96274.31;;;22.39;62.05
63929;BME280;50105;46.522;6.626;2022-07-24T11:47:24;96275.16;;;22.40;62.08
63929;BME280;50105;46.522;6.626;2022-07-24T11:49:56;96269.03;;;22.39;61.85
63929;BME280;50105;46.522;6.626;2022-07-24T11:52:24;96268.06;;;22.40;62.09
63929;BME280;50105;46.522;6.626;2022-07-24T11:54:52;96268.06;;;22.40;61.85
63929;BME280;50105;46.522;6.626;2022-07-24T11:57:24;96261.00;;;22.41;61.86
63929;BME280;50105;46.522;6.626;2022-07-24T12:00:32;96262.78;;;22.40;61.98
63929;BME280;50105;46.522;6.626;2022-07-24T12:02:58;96256.53;;;22.41;62.07
63929;BME280;50105;46.522;6.626;2022-07-24T12:05:26;96245.97;;;22.41;62.17
63929;BME280;50105;46.522;6.626;2022-07-24T12:07:53;96247.66;;;22.42;62.03
63929;BME280;50105;46.522;6.626;2022-07-24T12:10:22;96242.38;;;22.42;62.19
63929;BME280;50105;46.522;6.626;2022-07-24T12:12:53;96243.19;;;22.43;62.00
63929;BME280;50105;46.522;6.626;2022-07-24T12:15:20;96235.16;;;22.44;61.73
63929;BME280;50105;46.522;6.626;2022-07-24T12:20:22;96228.22;;;22.43;61.77
63929;BME280;50105;46.522;6.626;2022-07-24T12:22:48;96229.75;;;22.46;61.90
63929;BME280;50105;46.522;6.626;2022-07-24T12:25:15;96224.59;;;22.44;62.33
63929;BME280;50105;46.522;6.626;2022-07-24T12:27:42;96225.31;;;22.46;62.09
63929;BME280;50105;46.522;6.626;2022-07-24T12:30:16;96214.03;;;22.44;61.89
63929;BME280;50105;46.522;6.626;2022-07-24T12:33:04;96217.38;;;22.46;62.02
63929;BME280;50105;46.522;6.626;2022-07-24T12:35:31;96212.13;;;22.46;62.18
63929;BME280;50105;46.522;6.626;2022-07-24T12:37:59;96214.75;;;22.46;61.72
63929;BME280;50105;46.522;6.626;2022-07-24T12:40:33;96201.56;;;22.46;61.74
63929;BME280;50105;46.522;6.626;2022-07-24T12:43:01;96203.22;;;22.47;61.76
63929;BME280;50105;46.522;6.626;2022-07-24T12:45:28;96203.22;;;22.47;61.78
63929;BME280;50105;46.522;6.626;2022-07-24T12:50:40;96201.25;;;22.50;61.88
63929;BME280;50105;46.522;6.626;2022-07-24T12:53:22;96194.31;;;22.48;62.12
63929;BME280;50105;46.522;6.626;2022-07-24T12:58:53;96187.13;;;22.51;61.90
63929;BME280;50105;46.522;6.626;2022-07-24T13:01:20;96175.69;;;22.50;61.90
63929;BME280;50105;46.522;6.626;2022-07-24T13:03:51;96178.22;;;22.52;62.17
63929;BME280;50105;46.522;6.626;2022-07-24T13:06:18;96178.22;;;22.52;61.75
63929;BME280;50105;46.522;6.626;2022-07-24T13:08:56;96178.22;;;22.52;61.76
63929;BME280;50105;46.522;6.626;2022-07-24T13:11:22;96176.38;;;22.52;61.70
63929;BME280;50105;46.522;6.626;2022-07-24T13:13:49;96170.16;;;22.53;61.89
63929;BME280;50105;46.522;6.626;2022-07-24T13:16:15;96170.97;;;22.54;61.94
63929;BME280;50105;46.522;6.626;2022-07-24T13:18:41;96165.69;;;22.54;61.79
63929;BME280;50105;46.522;6.626;2022-07-24T13:21:08;96160.41;;;22.54;62.02
63929;BME280;50105;46.522;6.626;2022-07-24T13:23:34;96151.59;;;22.55;61.90
63929;BME280;50105;46.522;6.626;2022-07-24T13:26:01;96147.97;;;22.56;61.80
63929;BME280;50105;46.522;6.626;2022-07-24T13:28:27;96142.69;;;22.56;62.29
63929;BME280;50105;46.522;6.626;2022-07-24T13:30:54;96147.00;;;22.57;62.08
63929;BME280;50105;46.522;6.626;2022-07-24T13:33:20;96143.38;;;22.58;62.08
63929;BME280;50105;46.522;6.626;2022-07-24T13:35:47;96147.00;;;22.57;62.28